Time;durP1;ratioP1;P1;durP2;ratioP2;P2;SDS_P1;SDS_P2;PMS_P1;PMS_P2;Temp;Humidity;BMP_temperature;BMP_pressure;BME280_temperature;BME280_humidity;BME280_pressure;Samples;Min_cycle;Max_cycle;Signal;HPM_P1;HPM_P2
2023/04/04 00:00:07;;;;;;;3.30;3.00;;;4.40;38.10;;;;;;20863;6743;116890;-78
2023/04/04 00:02:42;;;;;;;2.30;2.20;;;4.20;38.10;;;;;;20749;6773;117446;-79
2023/04/04 00:05:19;;;;;;;3.30;3.00;;;4.00;38.60;;;;;;20401;6769;313390;-79
2023/04/04 00:07:54;;;;;;;4.30;3.20;;;3.90;38.50;;;;;;20830;6761;117011;-78
2023/04/04 00:10:30;;;;;;;3.67;3.37;;;3.90;38.70;;;;;;20560;6774;336791;-78
2023/04/04 00:13:08;;;;;;;3.20;3.00;;;4.00;38.50;;;;;;20748;6773;117367;-79
2023/04/04 00:15:41;;;;;;;3.27;2.97;;;3.90;38.60;;;;;;20825;6761;120140;-78
2023/04/04 00:18:16;;;;;;;3.58;3.28;;;3.60;38.90;;;;;;20570;6776;307277;-78
2023/04/04 00:20:52;;;;;;;3.20;3.00;;;3.80;39.10;;;;;;20546;6774;288430;-79
2023/04/04 00:23:28;;;;;;;4.17;3.00;;;4.10;38.40;;;;;;20745;6773;117398;-78
2023/04/04 00:26:03;;;;;;;3.50;3.20;;;4.00;38.20;;;;;;20551;6776;307536;-79
2023/04/04 00:28:39;;;;;;;3.40;3.20;;;4.00;37.70;;;;;;20831;6761;117948;-79
2023/04/04 00:31:14;;;;;;;4.32;3.50;;;3.90;37.80;;;;;;20591;6763;321260;-79
2023/04/04 00:33:50;;;;;;;4.40;3.40;;;4.00;37.30;;;;;;20745;6769;118452;-79
2023/04/04 00:36:26;;;;;;;3.70;3.40;;;3.90;36.80;;;;;;20718;6725;275595;-79
2023/04/04 00:39:02;;;;;;;4.40;4.00;;;3.90;36.60;;;;;;20701;6725;305567;-79
2023/04/04 00:41:38;;;;;;;8.40;7.28;;;4.40;35.00;;;;;;20712;6725;280812;-79
2023/04/04 00:44:14;;;;;;;4.80;4.40;;;4.40;35.00;;;;;;20596;6725;308660;-79
2023/04/04 00:46:49;;;;;;;3.73;3.33;;;4.60;34.70;;;;;;20699;6725;276599;-79
2023/04/04 00:49:25;;;;;;;3.20;2.90;;;4.70;34.40;;;;;;20714;6725;304781;-79
2023/04/04 00:52:00;;;;;;;2.60;2.40;;;4.80;34.40;;;;;;20928;6726;120694;-79
2023/04/04 00:54:37;;;;;;;3.07;2.87;;;4.30;34.80;;;;;;20561;6726;341483;-80
2023/04/04 00:57:12;;;;;;;2.60;2.40;;;4.30;34.70;;;;;;20617;6751;281960;-79
2023/04/04 00:59:48;;;;;;;2.83;2.60;;;4.50;34.40;;;;;;20890;6736;116810;-79
2023/04/04 01:02:24;;;;;;;2.47;2.35;;;4.20;35.10;;;;;;20700;6736;342517;-78
2023/04/04 01:05:00;;;;;;;2.92;2.50;;;4.20;34.90;;;;;;20475;6736;282048;-80
2023/04/04 01:07:35;;;;;;;2.80;2.60;;;4.40;34.50;;;;;;20655;6743;312106;-79
2023/04/04 01:10:12;;;;;;;2.40;2.30;;;4.50;34.20;;;;;;20874;6741;118095;-79
2023/04/04 01:12:48;;;;;;;2.90;2.70;;;4.30;34.30;;;;;;20643;6741;280928;-79
2023/04/04 01:15:23;;;;;;;2.50;2.40;;;4.20;34.60;;;;;;20393;6773;280166;-79
2023/04/04 01:17:59;;;;;;;2.70;2.50;;;4.30;34.40;;;;;;20563;6773;308296;-79
2023/04/04 01:20:37;;;;;;;2.83;2.50;;;4.50;34.10;;;;;;20562;6769;309463;-79
2023/04/04 01:23:11;;;;;;;2.70;2.50;;;4.60;34.20;;;;;;20540;6773;277823;-77
2023/04/04 01:25:46;;;;;;;2.87;2.60;;;4.60;33.60;;;;;;20596;6761;308590;-79
2023/04/04 01:28:22;;;;;;;2.80;2.60;;;4.70;33.40;;;;;;20770;6773;118486;-79
2023/04/04 01:30:57;;;;;;;2.57;2.37;;;4.30;34.00;;;;;;20754;6773;117458;-79
2023/04/04 01:33:40;;;;;;;2.58;2.37;;;3.90;34.90;;;;;;20546;6758;344372;-79
2023/04/04 01:36:18;;;;;;;2.80;2.60;;;3.80;34.70;;;;;;20547;6776;307394;-79
2023/04/04 01:39:00;;;;;;;2.80;2.60;;;4.00;34.30;;;;;;20537;6773;310283;-79
2023/04/04 01:41:38;;;;;;;2.80;2.60;;;4.20;34.00;;;;;;20576;6768;308649;-79
2023/04/04 01:44:14;;;;;;;4.27;2.50;;;4.30;33.70;;;;;;20768;6749;116923;-78
2023/04/04 01:46:47;;;;;;;2.80;2.60;;;4.10;34.30;;;;;;20511;6788;279465;-79
2023/04/04 01:49:22;;;;;;;3.15;2.60;;;4.00;34.40;;;;;;20580;6768;307361;-79
2023/04/04 01:51:58;;;;;;;2.50;2.30;;;4.10;34.20;;;;;;20585;6768;308967;-79
2023/04/04 01:54:36;;;;;;;3.00;2.80;;;4.30;34.10;;;;;;20449;6771;336705;-79
2023/04/04 01:57:09;;;;;;;3.20;2.30;;;4.40;33.70;;;;;;20505;6786;336907;-79
2023/04/04 01:59:47;;;;;;;2.37;2.20;;;4.40;33.40;;;;;;20726;6786;118011;-79
2023/04/04 02:02:23;;;;;;;2.65;2.50;;;4.10;33.90;;;;;;20565;6768;340447;-79
2023/04/04 02:04:56;;;;;;;2.10;2.00;;;3.90;34.50;;;;;;20578;6773;118384;-79
2023/04/04 02:07:31;;;;;;;2.30;2.20;;;3.70;34.30;;;;;;20828;6758;116999;-79
2023/04/04 02:10:10;;;;;;;2.20;2.10;;;3.40;35.10;;;;;;20872;6743;119056;-79
2023/04/04 02:12:43;;;;;;;2.43;2.33;;;3.00;35.70;;;;;;20621;6743;311248;-79
2023/04/04 02:15:18;;;;;;;2.90;2.30;;;3.10;35.50;;;;;;20432;6761;310114;-79
2023/04/04 02:17:54;;;;;;;2.07;1.90;;;3.50;35.10;;;;;;20872;6743;116099;-79
2023/04/04 02:20:32;;;;;;;2.37;2.27;;;3.40;35.30;;;;;;20868;6743;120148;-79
2023/04/04 02:23:06;;;;;;;2.70;2.50;;;2.80;37.10;;;;;;20845;6743;117053;-78
2023/04/04 02:25:41;;;;;;;2.97;2.63;;;2.80;36.30;;;;;;20610;6758;278633;-79
2023/04/04 02:28:21;;;;;;;2.53;2.33;;;3.00;36.20;;;;;;20606;6761;282115;-79
2023/04/04 02:30:57;;;;;;;2.47;2.28;;;3.30;35.40;;;;;;20569;6768;310464;-79
2023/04/04 02:33:30;;;;;;;2.70;2.50;;;3.40;35.00;;;;;;20759;6768;120736;-79
2023/04/04 02:36:08;;;;;;;2.87;2.67;;;3.40;35.60;;;;;;20572;6768;336680;-79
2023/04/04 02:38:43;;;;;;;2.60;2.40;;;3.40;35.00;;;;;;20791;6768;116884;-79
2023/04/04 02:41:18;;;;;;;2.33;2.23;;;3.30;35.30;;;;;;20776;6773;117207;-78
2023/04/04 02:43:54;;;;;;;2.97;2.40;;;3.00;35.90;;;;;;20726;6770;116862;-79
2023/04/04 02:46:30;;;;;;;4.10;3.60;;;2.50;37.00;;;;;;20779;6775;118015;-76
2023/04/04 02:49:06;;;;;;;2.50;2.23;;;2.50;36.80;;;;;;20732;6784;117691;-78
2023/04/04 02:51:41;;;;;;;2.63;2.33;;;2.30;37.10;;;;;;20792;6769;118153;-79
2023/04/04 02:54:17;;;;;;;3.03;2.83;;;2.20;38.00;;;;;;20519;6758;280088;-79
2023/04/04 02:56:53;;;;;;;8.53;5.13;;;2.80;37.00;;;;;;20643;6743;279809;-79
2023/04/04 02:59:29;;;;;;;3.30;3.00;;;2.80;36.60;;;;;;20615;6754;312646;-79
2023/04/04 03:02:04;;;;;;;2.80;2.60;;;3.10;36.00;;;;;;20528;6778;326752;-78
2023/04/04 03:04:40;;;;;;;3.03;2.70;;;3.30;35.70;;;;;;20644;6772;117007;-79
2023/04/04 03:07:15;;;;;;;2.57;2.43;;;3.10;35.80;;;;;;20840;6743;120592;-79
2023/04/04 03:09:52;;;;;;;2.90;2.60;;;2.80;36.50;;;;;;20757;6776;119162;-79
2023/04/04 03:12:30;;;;;;;6.97;2.90;;;2.50;37.00;;;;;;20788;6768;116865;-78
2023/04/04 03:15:06;;;;;;;3.60;2.87;;;2.20;37.50;;;;;;20451;6769;311463;-79
2023/04/04 03:17:41;;;;;;;3.60;2.85;;;2.30;38.50;;;;;;20647;6769;335301;-79
2023/04/04 03:20:16;;;;;;;3.73;2.87;;;2.50;37.70;;;;;;20832;6754;116870;-79
2023/04/04 03:22:52;;;;;;;3.22;2.92;;;2.50;37.30;;;;;;20527;6769;342044;-79
2023/04/04 03:25:28;;;;;;;3.33;3.03;;;2.50;37.70;;;;;;20337;6848;309938;-79
2023/04/04 03:28:07;;;;;;;2.50;2.40;;;2.80;37.40;;;;;;20757;6772;118158;-79
2023/04/04 03:30:43;;;;;;;3.08;2.87;;;2.70;37.30;;;;;;20570;6772;290534;-79
2023/04/04 03:33:18;;;;;;;3.30;2.97;;;2.70;37.50;;;;;;20489;6791;280672;-79
2023/04/04 03:35:54;;;;;;;3.15;2.95;;;2.90;37.20;;;;;;20571;6769;307391;-79
2023/04/04 03:38:29;;;;;;;3.27;2.80;;;3.10;36.90;;;;;;20791;6769;117191;-79
2023/04/04 03:41:05;;;;;;;3.20;2.93;;;2.90;37.00;;;;;;20598;6754;280801;-79
2023/04/04 03:43:40;;;;;;;2.90;2.70;;;2.80;37.30;;;;;;20787;6752;117138;-78
2023/04/04 03:46:16;;;;;;;2.70;2.60;;;2.70;38.10;;;;;;20833;6752;118185;-79
2023/04/04 03:48:52;;;;;;;3.43;2.70;;;2.40;38.10;;;;;;20607;6752;307100;-79
2023/04/04 03:51:27;;;;;;;3.23;2.90;;;2.40;38.30;;;;;;20625;6752;281591;-79
2023/04/04 03:54:03;;;;;;;3.40;2.53;;;2.70;37.90;;;;;;20547;6752;310705;-79
2023/04/04 03:56:38;;;;;;;2.60;2.40;;;3.00;37.50;;;;;;20820;6752;117118;-79
2023/04/04 03:59:15;;;;;;;3.13;2.90;;;2.80;37.70;;;;;;20610;6752;306180;-77
2023/04/04 04:01:51;;;;;;;2.87;2.67;;;2.70;37.60;;;;;;20840;6752;117267;-78
2023/04/04 04:04:26;;;;;;;3.97;2.40;;;2.60;37.70;;;;;;20735;6752;121304;-78
2023/04/04 04:07:02;;;;;;;3.20;2.60;;;2.00;38.60;;;;;;20818;6752;116802;-79
2023/04/04 04:09:38;;;;;;;2.53;2.43;;;1.90;38.50;;;;;;20838;6752;118564;-79
2023/04/04 04:12:14;;;;;;;3.50;3.10;;;1.80;39.00;;;;;;20838;6752;116752;-78
2023/04/04 04:14:49;;;;;;;3.07;2.83;;;1.60;39.30;;;;;;20482;6752;307343;-79
2023/04/04 04:17:24;;;;;;;3.20;3.00;;;1.80;39.80;;;;;;20625;6751;279293;-78
2023/04/04 04:20:00;;;;;;;3.70;2.95;;;2.20;39.40;;;;;;20636;6752;306685;-79
2023/04/04 04:22:36;;;;;;;3.27;2.80;;;2.60;38.80;;;;;;20847;6752;118266;-80
2023/04/04 04:25:11;;;;;;;3.67;3.10;;;2.50;38.60;;;;;;20460;6751;337799;-79
2023/04/04 04:27:48;;;;;;;3.35;3.08;;;2.70;38.30;;;;;;20635;6752;338093;-79
2023/04/04 04:30:23;;;;;;;3.80;3.20;;;2.70;38.30;;;;;;20633;6752;277342;-79
2023/04/04 04:32:59;;;;;;;2.87;2.67;;;2.90;38.00;;;;;;20826;6752;118046;-79
2023/04/04 04:35:38;;;;;;;3.53;3.10;;;2.70;38.00;;;;;;20838;6753;116921;-80
2023/04/04 04:38:10;;;;;;;3.83;2.43;;;2.40;38.70;;;;;;20894;6753;116004;-79
2023/04/04 04:40:46;;;;;;;3.67;3.35;;;2.20;39.20;;;;;;20570;6768;340707;-80
2023/04/04 04:43:22;;;;;;;3.60;3.30;;;2.20;39.20;;;;;;20488;6788;309078;-79
2023/04/04 04:45:57;;;;;;;3.37;3.17;;;2.50;38.70;;;;;;20634;6752;310606;-77
2023/04/04 04:48:34;;;;;;;3.47;3.10;;;2.70;38.20;;;;;;20632;6754;278888;-78
2023/04/04 04:51:10;;;;;;;3.93;3.20;;;2.90;37.80;;;;;;20634;6752;314372;-78
2023/04/04 04:53:46;;;;;;;3.10;2.90;;;2.80;37.80;;;;;;20797;6752;116932;-77
2023/04/04 04:56:22;;;;;;;4.28;3.83;;;2.80;37.80;;;;;;20645;6752;309686;-77
2023/04/04 04:58:57;;;;;;;5.82;4.18;;;2.70;38.30;;;;;;20635;6758;289284;-77
2023/04/04 05:01:33;;;;;;;3.50;3.30;;;2.80;38.00;;;;;;20784;6773;117762;-77
2023/04/04 05:04:11;;;;;;;3.47;2.83;;;2.60;38.00;;;;;;20695;6773;117297;-77
2023/04/04 05:06:47;;;;;;;3.67;3.37;;;2.30;38.60;;;;;;20523;6773;307086;-80
2023/04/04 05:09:20;;;;;;;3.50;3.30;;;2.30;39.10;;;;;;20542;6773;307136;-77
2023/04/04 05:11:56;;;;;;;6.77;4.53;;;2.60;39.00;;;;;;20762;6776;117329;-77
2023/04/04 05:14:31;;;;;;;6.03;3.97;;;2.40;38.70;;;;;;20662;6776;115998;-77
2023/04/04 05:17:06;;;;;;;4.77;3.47;;;2.10;39.70;;;;;;20593;6759;299425;-77
2023/04/04 05:19:42;;;;;;;4.00;3.60;;;2.20;39.60;;;;;;20601;6773;293012;-78
2023/04/04 05:22:19;;;;;;;3.67;3.37;;;2.50;39.10;;;;;;20822;6761;121310;-78
2023/04/04 05:24:56;;;;;;;3.97;3.60;;;2.40;39.10;;;;;;20378;6792;309015;-78
2023/04/04 05:27:31;;;;;;;3.50;3.20;;;2.40;39.20;;;;;;20810;6773;118484;-76
2023/04/04 05:30:08;;;;;;;3.40;3.00;;;2.30;39.10;;;;;;20787;6773;116673;-77
2023/04/04 05:32:46;;;;;;;3.33;2.93;;;2.00;39.50;;;;;;20729;6784;121396;-79
2023/04/04 05:35:22;;;;;;;4.00;3.45;;;1.80;40.00;;;;;;20395;6773;309348;-77
2023/04/04 05:37:57;;;;;;;5.77;3.50;;;2.00;40.10;;;;;;20852;6739;116892;-76
2023/04/04 05:40:35;;;;;;;3.90;3.40;;;2.00;40.00;;;;;;20519;6788;278747;-78
2023/04/04 05:43:11;;;;;;;3.60;3.37;;;2.10;39.90;;;;;;20706;6785;118841;-83
2023/04/04 05:45:46;;;;;;;3.60;3.20;;;2.10;39.90;;;;;;20779;6773;118440;-78
2023/04/04 05:48:22;;;;;;;4.10;3.70;;;1.90;40.00;;;;;;20821;6754;119133;-77
2023/04/04 05:50:57;;;;;;;4.67;4.23;;;1.80;40.40;;;;;;20804;6754;117595;-76
2023/04/04 05:53:33;;;;;;;3.60;3.40;;;1.70;40.60;;;;;;20723;6754;117031;-76
2023/04/04 05:56:08;;;;;;;3.20;3.00;;;1.60;40.90;;;;;;20840;6754;116856;-76
2023/04/04 05:58:45;;;;;;;3.50;3.17;;;1.50;41.00;;;;;;20818;6754;117316;-78
2023/04/04 06:01:19;;;;;;;3.03;2.87;;;1.50;41.00;;;;;;20813;6754;116950;-76
2023/04/04 06:03:55;;;;;;;3.50;3.30;;;1.40;41.20;;;;;;20772;6754;117051;-77
2023/04/04 06:06:40;;;;;;;3.90;3.60;;;1.80;41.20;;;;;;20611;6754;310339;-75
2023/04/04 06:09:10;;;;;;;4.63;3.77;;;1.70;41.10;;;;;;20761;6773;118620;-76
2023/04/04 06:11:46;;;;;;;4.03;3.73;;;2.00;41.10;;;;;;20506;6791;280687;-76
2023/04/04 06:14:22;;;;;;;5.70;5.30;;;2.50;40.80;;;;;;20687;6769;117207;-78
2023/04/04 06:16:57;;;;;;;6.43;5.93;;;2.80;40.70;;;;;;20479;6791;306572;-78
2023/04/04 06:19:34;;;;;;;6.47;5.80;;;3.20;39.60;;;;;;20510;6786;308702;-79
2023/04/04 06:22:10;;;;;;;5.23;3.23;;;3.80;38.70;;;;;;20734;6781;118474;-78
2023/04/04 06:24:45;;;;;;;4.03;3.73;;;4.00;38.70;;;;;;20439;6766;284658;-78
2023/04/04 06:27:22;;;;;;;3.20;3.00;;;4.20;37.20;;;;;;20754;6779;118416;-77
2023/04/04 06:29:58;;;;;;;4.60;4.20;;;4.30;37.20;;;;;;20536;6768;340847;-76
2023/04/04 06:32:33;;;;;;;6.37;5.83;;;4.50;36.20;;;;;;20746;6781;117137;-78
2023/04/04 06:35:09;;;;;;;3.90;3.60;;;4.50;36.40;;;;;;20369;6781;281612;-78
2023/04/04 06:37:44;;;;;;;5.10;4.00;;;4.60;35.60;;;;;;20786;6766;116873;-78
2023/04/04 06:40:21;;;;;;;4.20;3.80;;;4.60;35.90;;;;;;20559;6765;306192;-80
2023/04/04 06:42:57;;;;;;;4.20;3.80;;;4.80;35.00;;;;;;20564;6765;302450;-77
2023/04/04 06:45:34;;;;;;;3.63;3.33;;;5.10;34.80;;;;;;20587;6765;278082;-80
2023/04/04 06:48:09;;;;;;;3.40;3.10;;;5.30;33.60;;;;;;20593;6766;308022;-80
2023/04/04 06:50:45;;;;;;;3.70;3.40;;;5.50;33.30;;;;;;20549;6766;303035;-78
2023/04/04 06:53:22;;;;;;;3.70;3.17;;;5.70;33.00;;;;;;20773;6766;117202;-75
2023/04/04 06:55:56;;;;;;;6.67;6.00;;;5.50;33.60;;;;;;20606;6758;300022;-76
2023/04/04 06:58:32;;;;;;;5.27;4.87;;;5.80;32.40;;;;;;20601;6761;324507;-80
2023/04/04 07:01:08;;;;;;;5.43;3.53;;;5.80;32.40;;;;;;20744;6777;119696;-74
2023/04/04 07:03:43;;;;;;;5.37;4.90;;;5.80;32.90;;;;;;20713;6773;118694;-76
2023/04/04 07:06:23;;;;;;;3.27;3.00;;;5.50;33.60;;;;;;20804;6761;117386;-75
2023/04/04 07:08:58;;;;;;;3.77;3.47;;;5.30;34.20;;;;;;20743;6773;117199;-75
2023/04/04 07:11:33;;;;;;;3.73;3.43;;;5.20;34.70;;;;;;20712;6788;117881;-74
2023/04/04 07:14:09;;;;;;;3.60;3.40;;;5.20;34.80;;;;;;20727;6751;116790;-82
2023/04/04 07:16:45;;;;;;;5.83;4.57;;;5.10;35.00;;;;;;20868;6743;118082;-80
2023/04/04 07:19:27;;;;;;;4.07;3.77;;;5.00;35.00;;;;;;20674;6743;305937;-81
2023/04/04 07:21:57;;;;;;;6.53;5.93;;;5.40;33.70;;;;;;20891;6743;118113;-81
2023/04/04 07:24:32;;;;;;;4.03;3.30;;;5.60;34.00;;;;;;20552;6743;308491;-80
2023/04/04 07:27:18;;;;;;;6.20;4.30;;;5.90;32.60;;;;;;20874;6743;117823;-80
2023/04/04 07:29:44;;;;;;;3.50;3.20;;;6.10;33.20;;;;;;20793;6773;117904;-80
2023/04/04 07:32:20;;;;;;;14.93;13.63;;;6.40;32.30;;;;;;20540;6788;305717;-80
2023/04/04 07:34:55;;;;;;;3.87;3.57;;;6.40;32.20;;;;;;20638;6769;118517;-80
2023/04/04 07:37:32;;;;;;;3.77;3.47;;;6.60;32.60;;;;;;20761;6758;117967;-80
2023/04/04 07:40:08;;;;;;;3.70;3.27;;;6.60;32.90;;;;;;20838;6758;116969;-80
2023/04/04 07:42:43;;;;;;;3.60;3.30;;;6.50;33.10;;;;;;20626;6758;307287;-80
2023/04/04 07:45:18;;;;;;;3.20;3.00;;;6.80;31.60;;;;;;20580;6773;121611;-78
2023/04/04 07:47:54;;;;;;;3.60;3.40;;;6.90;31.90;;;;;;20572;6773;334725;-79
2023/04/04 07:50:30;;;;;;;3.70;3.40;;;7.20;31.40;;;;;;20812;6755;122841;-80
2023/04/04 07:53:05;;;;;;;3.60;3.37;;;7.40;31.90;;;;;;20624;6754;306194;-79
2023/04/04 07:55:40;;;;;;;3.35;3.00;;;7.70;30.50;;;;;;20546;6787;304807;-80
2023/04/04 07:58:17;;;;;;;4.60;3.70;;;8.20;29.70;;;;;;20545;6790;278094;-79
2023/04/04 08:00:54;;;;;;;3.78;3.47;;;8.50;29.20;;;;;;20540;6753;306832;-80
2023/04/04 08:03:30;;;;;;;3.97;3.73;;;8.80;28.80;;;;;;20737;6786;117239;-80
2023/04/04 08:06:06;;;;;;;4.37;3.72;;;8.70;29.30;;;;;;20566;6790;288791;-82
2023/04/04 08:08:41;;;;;;;5.32;3.45;;;8.70;28.90;;;;;;20546;6779;303756;-78
2023/04/04 08:11:17;;;;;;;3.70;3.10;;;9.00;28.50;;;;;;20758;6776;117196;-74
2023/04/04 08:13:52;;;;;;;3.20;3.00;;;8.90;29.20;;;;;;20451;6788;340680;-74
2023/04/04 08:16:28;;;;;;;3.90;2.20;;;9.00;28.20;;;;;;20732;6788;117105;-74
2023/04/04 08:19:03;;;;;;;4.23;2.73;;;9.00;29.00;;;;;;20787;6758;117432;-76
2023/04/04 08:21:39;;;;;;;3.00;2.80;;;8.80;29.40;;;;;;20807;6773;118678;-78
2023/04/04 08:24:14;;;;;;;3.00;2.70;;;8.50;29.60;;;;;;20527;6751;285678;-74
2023/04/04 08:26:50;;;;;;;3.15;2.85;;;8.60;28.40;;;;;;20573;6758;345679;-73
2023/04/04 08:29:27;;;;;;;2.77;2.50;;;8.90;28.50;;;;;;20809;6758;120920;-73
2023/04/04 08:32:01;;;;;;;2.60;2.40;;;8.90;29.00;;;;;;20812;6758;120951;-78
2023/04/04 08:34:37;;;;;;;3.10;2.90;;;8.70;29.60;;;;;;20481;6758;309615;-72
2023/04/04 08:37:13;;;;;;;3.17;2.87;;;8.80;28.20;;;;;;20629;6743;306618;-75
2023/04/04 08:39:48;;;;;;;3.17;2.92;;;9.20;27.90;;;;;;20642;6743;290325;-74
2023/04/04 08:42:23;;;;;;;2.70;2.50;;;9.40;27.70;;;;;;20649;6743;278293;-79
2023/04/04 08:44:59;;;;;;;2.77;2.57;;;9.60;26.40;;;;;;20413;6761;280242;-79
2023/04/04 08:47:36;;;;;;;2.70;2.57;;;9.70;26.60;;;;;;20711;6776;117415;-78
2023/04/04 08:50:11;;;;;;;3.10;2.90;;;9.60;27.40;;;;;;20584;6761;278203;-79
2023/04/04 08:52:48;;;;;;;3.03;2.83;;;9.70;27.20;;;;;;20707;6788;121261;-76
2023/04/04 08:55:23;;;;;;;3.37;2.70;;;9.80;27.90;;;;;;20556;6774;118218;-76
2023/04/04 08:57:59;;;;;;;7.40;6.87;;;9.90;26.30;;;;;;20569;6769;277965;-76
2023/04/04 09:00:35;;;;;;;3.40;3.10;;;9.80;26.30;;;;;;20728;6787;117186;-76
2023/04/04 09:03:14;;;;;;;6.37;3.03;;;9.90;27.00;;;;;;20753;6769;119420;-77
2023/04/04 09:05:49;;;;;;;2.87;2.63;;;9.80;27.60;;;;;;20564;6771;307588;-76
2023/04/04 09:08:25;;;;;;;8.13;7.43;;;10.50;25.30;;;;;;20575;6769;306766;-73
2023/04/04 09:11:01;;;;;;;3.20;2.90;;;10.40;25.20;;;;;;20600;6754;307077;-72
2023/04/04 09:13:39;;;;;;;3.13;2.80;;;10.70;25.10;;;;;;20582;6754;315877;-74
2023/04/04 09:16:15;;;;;;;4.17;2.70;;;10.70;24.10;;;;;;20837;6753;121141;-74
2023/04/04 09:18:48;;;;;;;4.32;3.70;;;10.40;25.30;;;;;;20559;6768;307433;-74
2023/04/04 09:21:25;;;;;;;3.00;2.80;;;10.50;25.20;;;;;;20572;6769;298401;-74
2023/04/04 09:24:00;;;;;;;3.55;3.25;;;10.70;25.10;;;;;;20498;6769;308401;-74
2023/04/04 09:26:50;;;;;;;4.32;3.92;;;10.90;24.50;;;;;;20604;6758;307768;-74
2023/04/04 09:29:25;;;;;;;2.83;2.63;;;11.00;23.80;;;;;;20602;6758;311422;-74
2023/04/04 09:32:00;;;;;;;3.07;2.83;;;11.10;24.40;;;;;;20717;6788;117442;-74
2023/04/04 09:34:36;;;;;;;3.53;2.93;;;11.10;25.20;;;;;;20643;6773;117320;-73
2023/04/04 09:37:13;;;;;;;3.20;2.90;;;10.80;25.80;;;;;;20523;6775;340932;-77
2023/04/04 09:39:47;;;;;;;3.87;3.42;;;11.10;24.00;;;;;;20563;6769;277901;-77
2023/04/04 09:42:23;;;;;;;2.90;2.70;;;11.10;24.00;;;;;;20821;6758;118452;-74
2023/04/04 09:44:59;;;;;;;2.70;2.50;;;11.00;24.90;;;;;;20585;6785;117552;-73
2023/04/04 09:47:34;;;;;;;3.03;2.73;;;10.80;25.30;;;;;;20724;6788;117864;-75
2023/04/04 09:50:13;;;;;;;2.83;2.63;;;10.60;25.70;;;;;;20822;6758;117301;-75
2023/04/04 09:52:48;;;;;;;2.93;2.73;;;10.40;26.10;;;;;;20702;6787;118624;-77
2023/04/04 09:55:31;;;;;;;2.90;2.70;;;10.30;26.50;;;;;;20357;6844;284817;-74
2023/04/04 09:58:13;;;;;;;3.10;2.80;;;11.00;24.70;;;;;;20602;6758;301290;-77
2023/04/04 10:00:50;;;;;;;3.40;3.10;;;11.00;24.70;;;;;;20565;6768;306009;-85
2023/04/04 10:03:26;;;;;;;3.17;2.90;;;11.40;24.20;;;;;;20523;6769;308878;-78
2023/04/04 10:06:03;;;;;;;3.40;3.10;;;11.60;25.00;;;;;;20512;6773;309697;-75
2023/04/04 10:08:38;;;;;;;3.07;2.87;;;11.90;23.70;;;;;;20557;6773;277657;-74
2023/04/04 10:11:13;;;;;;;2.78;2.60;;;11.90;23.60;;;;;;20551;6773;307699;-74
2023/04/04 10:13:51;;;;;;;3.42;3.15;;;12.10;23.70;;;;;;20535;6814;311775;-76
2023/04/04 10:16:27;;;;;;;3.03;2.70;;;12.10;23.70;;;;;;20654;6743;306375;-74
2023/04/04 10:19:04;;;;;;;2.87;2.67;;;12.10;23.50;;;;;;20811;6756;116888;-77
2023/04/04 10:21:39;;;;;;;3.42;3.22;;;11.90;24.70;;;;;;20662;6743;336348;-78
2023/04/04 10:24:16;;;;;;;3.08;2.87;;;11.90;24.70;;;;;;20529;6756;309897;-77
2023/04/04 10:26:53;;;;;;;3.13;2.93;;;12.10;25.10;;;;;;20596;6758;278187;-78
2023/04/04 10:29:26;;;;;;;3.10;2.90;;;12.40;24.10;;;;;;20598;6761;330158;-76
2023/04/04 10:32:02;;;;;;;3.67;3.43;;;12.40;24.30;;;;;;20597;6761;312241;-76
2023/04/04 10:34:47;;;;;;;3.10;2.80;;;12.60;24.50;;;;;;20497;6758;283390;-77
2023/04/04 10:37:26;;;;;;;2.80;2.60;;;12.70;23.00;;;;;;20782;6814;117985;-75
2023/04/04 10:40:07;;;;;;;3.30;2.83;;;12.50;24.20;;;;;;20781;6773;117171;-78
2023/04/04 10:42:43;;;;;;;3.17;2.90;;;12.00;24.80;;;;;;20717;6829;118226;-77
2023/04/04 10:45:20;;;;;;;3.30;3.10;;;11.70;25.10;;;;;;20500;6758;341078;-78
2023/04/04 10:47:55;;;;;;;3.33;3.03;;;11.60;24.60;;;;;;20733;6789;118813;-71
2023/04/04 10:50:33;;;;;;;3.40;3.10;;;11.40;24.90;;;;;;20763;6773;117345;-80
2023/04/04 10:53:07;;;;;;;3.17;2.57;;;11.20;25.50;;;;;;20745;6773;123670;-77
2023/04/04 10:55:44;;;;;;;3.03;2.83;;;11.00;25.90;;;;;;20602;6758;336128;-76
2023/04/04 10:58:18;;;;;;;2.80;2.60;;;11.10;24.60;;;;;;20780;6771;117155;-74
2023/04/04 11:00:54;;;;;;;2.80;2.60;;;11.00;25.20;;;;;;20731;6773;120710;-74
2023/04/04 11:03:31;;;;;;;3.10;2.83;;;10.80;25.60;;;;;;20792;6758;117422;-74
2023/04/04 11:06:06;;;;;;;3.00;2.77;;;10.70;25.60;;;;;;20762;6776;123265;-74
2023/04/04 11:08:41;;;;;;;2.70;2.50;;;10.60;25.80;;;;;;20776;6773;122936;-74
2023/04/04 11:11:17;;;;;;;4.60;2.83;;;10.40;25.90;;;;;;20750;6773;118831;-75
2023/04/04 11:13:59;;;;;;;3.03;2.83;;;10.40;26.40;;;;;;20712;6773;117386;-75
2023/04/04 11:16:45;;;;;;;3.10;2.90;;;10.30;26.50;;;;;;20873;6743;117199;-76
2023/04/04 11:19:20;;;;;;;3.23;2.63;;;10.20;26.60;;;;;;20820;6758;117483;-73
2023/04/04 11:21:59;;;;;;;3.55;3.25;;;10.20;26.70;;;;;;20652;6758;311558;-73
2023/04/04 11:24:32;;;;;;;3.37;3.10;;;10.70;24.70;;;;;;20539;6746;279115;-74
2023/04/04 11:27:08;;;;;;;3.57;3.27;;;10.70;24.70;;;;;;20530;6776;305972;-74
2023/04/04 11:29:51;;;;;;;3.43;2.83;;;11.10;24.20;;;;;;20780;6773;118862;-73
2023/04/04 11:32:26;;;;;;;3.67;2.87;;;10.90;25.90;;;;;;20789;6771;121133;-75
2023/04/04 11:35:02;;;;;;;3.50;3.20;;;10.90;25.40;;;;;;20478;6756;308283;-75
2023/04/04 11:37:50;;;;;;;3.60;3.30;;;11.10;25.40;;;;;;20663;6744;277526;-74
2023/04/04 11:40:33;;;;;;;3.00;2.80;;;11.40;25.40;;;;;;20864;6743;117648;-74
2023/04/04 11:43:10;;;;;;;2.90;2.70;;;11.00;25.00;;;;;;20733;6776;123192;-73
2023/04/04 11:45:47;;;;;;;2.60;2.50;;;11.00;25.00;;;;;;20785;6768;117310;-73
2023/04/04 11:48:23;;;;;;;3.33;3.00;;;11.00;25.20;;;;;;20510;6788;309442;-73
2023/04/04 11:50:59;;;;;;;3.62;3.00;;;11.00;25.20;;;;;;20557;6779;280485;-73
2023/04/04 11:53:35;;;;;;;3.58;3.28;;;11.60;24.40;;;;;;20480;6777;301703;-73
2023/04/04 11:56:16;;;;;;;3.10;2.80;;;11.60;24.40;;;;;;20858;6758;117045;-73
2023/04/04 11:58:46;;;;;;;2.90;2.70;;;11.60;24.80;;;;;;20841;6743;120978;-73
2023/04/04 12:01:22;;;;;;;2.90;2.70;;;11.40;25.40;;;;;;20826;6758;117355;-74
2023/04/04 12:03:58;;;;;;;3.42;3.12;;;11.30;25.50;;;;;;20499;6773;314130;-75
2023/04/04 12:06:37;;;;;;;3.73;2.90;;;11.40;24.40;;;;;;20765;6775;118411;-75
2023/04/04 12:09:16;;;;;;;3.30;3.00;;;11.30;24.50;;;;;;20711;6788;117252;-79
2023/04/04 12:11:48;;;;;;;4.53;3.25;;;11.10;25.20;;;;;;20544;6771;306799;-77
2023/04/04 12:14:24;;;;;;;4.03;3.20;;;11.20;24.50;;;;;;20697;6771;117245;-74
2023/04/04 12:17:00;;;;;;;2.77;2.57;;;11.30;25.10;;;;;;20743;6773;123171;-75
2023/04/04 12:19:40;;;;;;;3.90;2.80;;;11.20;25.80;;;;;;20800;6818;117744;-73
2023/04/04 12:22:12;;;;;;;3.40;2.67;;;11.10;26.40;;;;;;20826;6758;121066;-74
2023/04/04 12:24:47;;;;;;;3.57;3.30;;;11.10;26.60;;;;;;20658;6758;118563;-74
2023/04/04 12:27:23;;;;;;;3.28;3.08;;;11.20;26.80;;;;;;20610;6751;342371;-73
2023/04/04 12:29:59;;;;;;;3.50;3.20;;;11.40;25.30;;;;;;20800;6766;118431;-73
2023/04/04 12:32:35;;;;;;;3.70;3.30;;;11.70;24.80;;;;;;20493;6787;336490;-73
2023/04/04 12:35:12;;;;;;;3.10;2.57;;;11.70;24.80;;;;;;20646;6758;118559;-73
2023/04/04 12:37:56;;;;;;;3.33;3.07;;;11.70;25.50;;;;;;20820;6758;117925;-71
2023/04/04 12:40:32;;;;;;;3.57;3.20;;;11.80;25.30;;;;;;20554;6771;276927;-73
2023/04/04 12:43:08;;;;;;;3.97;3.27;;;11.80;25.30;;;;;;20800;6754;117620;-74
2023/04/04 12:45:43;;;;;;;3.37;3.10;;;11.80;25.50;;;;;;20608;6758;335846;-74
2023/04/04 12:48:20;;;;;;;3.40;3.20;;;11.90;24.50;;;;;;20657;6742;310501;-74
2023/04/04 12:50:56;;;;;;;3.37;3.07;;;12.50;24.40;;;;;;20645;6742;305386;-79
2023/04/04 12:53:32;;;;;;;3.07;2.87;;;12.40;24.30;;;;;;20841;6742;118642;-74
2023/04/04 12:56:08;;;;;;;3.20;3.00;;;12.10;25.30;;;;;;20876;6742;116990;-75
2023/04/04 12:58:47;;;;;;;3.37;3.10;;;12.10;25.30;;;;;;20860;6742;118745;-76
2023/04/04 13:01:22;;;;;;;3.50;3.20;;;11.80;25.50;;;;;;20861;6798;117679;-74
2023/04/04 13:04:03;;;;;;;2.80;2.60;;;11.50;25.90;;;;;;20806;6742;116922;-74
2023/04/04 13:06:39;;;;;;;3.50;3.10;;;11.10;26.20;;;;;;20843;6742;263293;-74
2023/04/04 13:09:18;;;;;;;5.73;2.90;;;11.10;26.20;;;;;;20865;6742;116960;-74
2023/04/04 13:12:01;;;;;;;3.20;3.00;;;10.90;26.10;;;;;;20666;6742;281234;-74
2023/04/04 13:14:55;;;;;;;3.10;2.90;;;10.90;25.80;;;;;;20768;6742;117516;-74
2023/04/04 13:17:44;;;;;;;3.60;3.30;;;10.90;25.30;;;;;;20669;6742;335079;-75
2023/04/04 13:20:30;;;;;;;3.10;2.90;;;11.10;24.80;;;;;;20883;6742;117471;-74
2023/04/04 13:22:56;;;;;;;3.27;3.07;;;11.20;25.50;;;;;;20859;6742;118192;-75
2023/04/04 13:25:31;;;;;;;3.75;3.50;;;11.10;25.80;;;;;;20442;6813;300575;-74
2023/04/04 13:28:07;;;;;;;3.20;3.00;;;11.20;25.30;;;;;;20881;6742;118632;-73